sensor_id;sensor_type;location;lat;lon;timestamp;temperature;humidity
24011;DHT22;12217;50.792;4.372;2023-05-10T00:01:56;14.10;99.90
24011;DHT22;12217;50.792;4.372;2023-05-10T00:04:21;14.10;99.90
24011;DHT22;12217;50.792;4.372;2023-05-10T00:06:47;14.10;99.90
24011;DHT22;12217;50.792;4.372;2023-05-10T00:09:13;13.90;99.90
24011;DHT22;12217;50.792;4.372;2023-05-10T00:11:38;14.00;99.90
24011;DHT22;12217;50.792;4.372;2023-05-10T00:14:04;14.20;99.90
24011;DHT22;12217;50.792;4.372;2023-05-10T00:16:30;14.20;99.90
24011;DHT22;12217;50.792;4.372;2023-05-10T00:18:55;14.30;99.90
24011;DHT22;12217;50.792;4.372;2023-05-10T00:21:21;14.30;99.90
24011;DHT22;12217;50.792;4.372;2023-05-10T00:23:47;14.20;99.90
24011;DHT22;12217;50.792;4.372;2023-05-10T00:26:12;13.90;99.90
24011;DHT22;12217;50.792;4.372;2023-05-10T00:28:38;13.70;99.90
24011;DHT22;12217;50.792;4.372;2023-05-10T00:31:04;13.90;99.90
24011;DHT22;12217;50.792;4.372;2023-05-10T00:33:29;14.00;99.90
24011;DHT22;12217;50.792;4.372;2023-05-10T00:35:55;14.10;99.90
24011;DHT22;12217;50.792;4.372;2023-05-10T00:38:21;14.30;99.90
24011;DHT22;12217;50.792;4.372;2023-05-10T00:40:47;14.30;99.90
24011;DHT22;12217;50.792;4.372;2023-05-10T00:43:12;14.30;99.90
24011;DHT22;12217;50.792;4.372;2023-05-10T00:45:39;14.30;99.90
24011;DHT22;12217;50.792;4.372;2023-05-10T00:48:05;14.50;99.90
24011;DHT22;12217;50.792;4.372;2023-05-10T00:50:32;14.50;99.90
24011;DHT22;12217;50.792;4.372;2023-05-10T00:52:59;14.40;99.90
24011;DHT22;12217;50.792;4.372;2023-05-10T00:55:25;14.40;99.90
24011;DHT22;12217;50.792;4.372;2023-05-10T00:57:52;14.40;99.90
24011;DHT22;12217;50.792;4.372;2023-05-10T01:00:18;14.30;99.90
24011;DHT22;12217;50.792;4.372;2023-05-10T01:02:45;14.20;99.90
24011;DHT22;12217;50.792;4.372;2023-05-10T01:05:11;14.50;99.90
24011;DHT22;12217;50.792;4.372;2023-05-10T01:07:37;14.50;99.90
24011;DHT22;12217;50.792;4.372;2023-05-10T01:10:03;14.30;99.90
24011;DHT22;12217;50.792;4.372;2023-05-10T01:12:29;14.30;99.90
24011;DHT22;12217;50.792;4.372;2023-05-10T01:14:55;14.30;99.90
24011;DHT22;12217;50.792;4.372;2023-05-10T01:17:22;14.10;99.90
24011;DHT22;12217;50.792;4.372;2023-05-10T01:19:47;14.20;99.90
24011;DHT22;12217;50.792;4.372;2023-05-10T01:27:50;14.20;99.90
24011;DHT22;12217;50.792;4.372;2023-05-10T01:30:34;14.20;99.90
24011;DHT22;12217;50.792;4.372;2023-05-10T01:39:04;14.30;99.90
24011;DHT22;12217;50.792;4.372;2023-05-10T01:41:54;14.30;99.90
24011;DHT22;12217;50.792;4.372;2023-05-10T01:44:37;14.30;99.90
24011;DHT22;12217;50.792;4.372;2023-05-10T01:47:15;14.30;99.90
24011;DHT22;12217;50.792;4.372;2023-05-10T01:49:47;14.20;99.90
24011;DHT22;12217;50.792;4.372;2023-05-10T01:52:17;14.20;99.90
24011;DHT22;12217;50.792;4.372;2023-05-10T01:54:55;14.20;99.90
24011;DHT22;12217;50.792;4.372;2023-05-10T01:57:22;14.10;99.90
24011;DHT22;12217;50.792;4.372;2023-05-10T01:59:51;13.90;99.90
24011;DHT22;12217;50.792;4.372;2023-05-10T02:02:20;13.90;99.90
24011;DHT22;12217;50.792;4.372;2023-05-10T02:04:47;14.10;99.90
24011;DHT22;12217;50.792;4.372;2023-05-10T02:07:15;14.30;99.90
24011;DHT22;12217;50.792;4.372;2023-05-10T02:09:44;14.10;99.90
24011;DHT22;12217;50.792;4.372;2023-05-10T02:12:13;14.10;99.90
24011;DHT22;12217;50.792;4.372;2023-05-10T02:14:41;14.00;99.90
24011;DHT22;12217;50.792;4.372;2023-05-10T02:17:08;14.10;99.90
24011;DHT22;12217;50.792;4.372;2023-05-10T02:19:36;14.20;99.90
24011;DHT22;12217;50.792;4.372;2023-05-10T02:22:03;14.30;99.90
24011;DHT22;12217;50.792;4.372;2023-05-10T02:24:29;14.40;99.90
24011;DHT22;12217;50.792;4.372;2023-05-10T02:26:56;14.30;99.90
24011;DHT22;12217;50.792;4.372;2023-05-10T02:29:24;14.10;99.90
24011;DHT22;12217;50.792;4.372;2023-05-10T02:31:52;13.90;99.90
24011;DHT22;12217;50.792;4.372;2023-05-10T02:34:21;13.60;99.90
24011;DHT22;12217;50.792;4.372;2023-05-10T02:36:48;13.60;99.90
24011;DHT22;12217;50.792;4.372;2023-05-10T02:39:14;13.50;99.90
24011;DHT22;12217;50.792;4.372;2023-05-10T02:41:42;13.60;99.90
24011;DHT22;12217;50.792;4.372;2023-05-10T02:44:09;13.60;99.90
24011;DHT22;12217;50.792;4.372;2023-05-10T02:46:36;13.30;99.90
24011;DHT22;12217;50.792;4.372;2023-05-10T02:49:03;13.40;99.90
24011;DHT22;12217;50.792;4.372;2023-05-10T02:51:31;13.60;99.90
24011;DHT22;12217;50.792;4.372;2023-05-10T02:54:03;13.70;99.90
24011;DHT22;12217;50.792;4.372;2023-05-10T02:56:34;13.60;99.90
24011;DHT22;12217;50.792;4.372;2023-05-10T02:59:01;13.50;99.90
24011;DHT22;12217;50.792;4.372;2023-05-10T03:01:26;13.60;99.90
24011;DHT22;12217;50.792;4.372;2023-05-10T03:03:52;13.90;99.90
24011;DHT22;12217;50.792;4.372;2023-05-10T03:06:18;13.80;99.90
24011;DHT22;12217;50.792;4.372;2023-05-10T03:08:44;13.80;99.90
24011;DHT22;12217;50.792;4.372;2023-05-10T03:16:27;13.80;99.90
24011;DHT22;12217;50.792;4.372;2023-05-10T03:19:06;13.90;99.90
24011;DHT22;12217;50.792;4.372;2023-05-10T03:21:32;13.80;99.90
24011;DHT22;12217;50.792;4.372;2023-05-10T03:24:07;13.60;99.90
24011;DHT22;12217;50.792;4.372;2023-05-10T03:26:33;13.50;99.90
24011;DHT22;12217;50.792;4.372;2023-05-10T03:29:00;13.60;99.90
24011;DHT22;12217;50.792;4.372;2023-05-10T03:31:26;13.70;99.90
24011;DHT22;12217;50.792;4.372;2023-05-10T03:33:53;13.80;99.90
24011;DHT22;12217;50.792;4.372;2023-05-10T03:36:19;13.80;99.90
24011;DHT22;12217;50.792;4.372;2023-05-10T03:38:45;14.00;99.90
24011;DHT22;12217;50.792;4.372;2023-05-10T03:41:11;14.10;99.90
24011;DHT22;12217;50.792;4.372;2023-05-10T03:43:36;13.80;99.90
24011;DHT22;12217;50.792;4.372;2023-05-10T03:46:03;13.90;99.90
24011;DHT22;12217;50.792;4.372;2023-05-10T03:48:29;14.00;99.90
24011;DHT22;12217;50.792;4.372;2023-05-10T03:50:55;14.00;99.90
24011;DHT22;12217;50.792;4.372;2023-05-10T03:53:20;14.10;99.90
24011;DHT22;12217;50.792;4.372;2023-05-10T03:55:46;14.00;99.90
24011;DHT22;12217;50.792;4.372;2023-05-10T03:58:12;14.10;99.90
24011;DHT22;12217;50.792;4.372;2023-05-10T04:00:37;14.10;99.90
24011;DHT22;12217;50.792;4.372;2023-05-10T04:03:09;14.20;99.90
24011;DHT22;12217;50.792;4.372;2023-05-10T04:05:35;14.20;99.90
24011;DHT22;12217;50.792;4.372;2023-05-10T04:08:00;14.20;99.90
24011;DHT22;12217;50.792;4.372;2023-05-10T04:10:26;14.20;99.90
24011;DHT22;12217;50.792;4.372;2023-05-10T04:12:52;14.10;99.90
24011;DHT22;12217;50.792;4.372;2023-05-10T04:15:17;14.10;99.90
24011;DHT22;12217;50.792;4.372;2023-05-10T04:17:43;13.90;99.90
24011;DHT22;12217;50.792;4.372;2023-05-10T04:20:09;13.80;99.90
24011;DHT22;12217;50.792;4.372;2023-05-10T04:22:35;13.90;99.90
24011;DHT22;12217;50.792;4.372;2023-05-10T04:25:01;13.90;99.90
24011;DHT22;12217;50.792;4.372;2023-05-10T04:27:26;13.80;99.90
24011;DHT22;12217;50.792;4.372;2023-05-10T04:29:52;13.70;99.90
24011;DHT22;12217;50.792;4.372;2023-05-10T04:32:18;13.80;99.90
24011;DHT22;12217;50.792;4.372;2023-05-10T04:34:44;13.80;99.90
24011;DHT22;12217;50.792;4.372;2023-05-10T04:37:10;13.90;99.90
24011;DHT22;12217;50.792;4.372;2023-05-10T04:39:35;13.80;99.90
24011;DHT22;12217;50.792;4.372;2023-05-10T04:42:02;13.60;99.90
24011;DHT22;12217;50.792;4.372;2023-05-10T04:44:28;13.40;99.90
24011;DHT22;12217;50.792;4.372;2023-05-10T04:46:55;13.60;99.90
24011;DHT22;12217;50.792;4.372;2023-05-10T04:49:20;13.90;99.90
24011;DHT22;12217;50.792;4.372;2023-05-10T04:51:46;13.70;99.90
24011;DHT22;12217;50.792;4.372;2023-05-10T04:54:11;13.60;99.90
24011;DHT22;12217;50.792;4.372;2023-05-10T04:56:37;13.40;99.90
24011;DHT22;12217;50.792;4.372;2023-05-10T04:59:03;13.20;99.90
24011;DHT22;12217;50.792;4.372;2023-05-10T05:01:29;13.10;99.90
24011;DHT22;12217;50.792;4.372;2023-05-10T05:03:55;13.30;99.90
24011;DHT22;12217;50.792;4.372;2023-05-10T05:06:20;13.20;99.90
24011;DHT22;12217;50.792;4.372;2023-05-10T05:08:46;13.30;99.90
24011;DHT22;12217;50.792;4.372;2023-05-10T05:11:12;13.30;99.90
24011;DHT22;12217;50.792;4.372;2023-05-10T05:13:37;13.20;99.90
24011;DHT22;12217;50.792;4.372;2023-05-10T05:16:05;13.10;99.90
24011;DHT22;12217;50.792;4.372;2023-05-10T05:18:31;13.10;99.90
24011;DHT22;12217;50.792;4.372;2023-05-10T05:20:56;13.30;99.90
24011;DHT22;12217;50.792;4.372;2023-05-10T05:23:22;13.30;99.90
24011;DHT22;12217;50.792;4.372;2023-05-10T05:25:51;13.40;99.90
24011;DHT22;12217;50.792;4.372;2023-05-10T05:28:18;13.50;99.90
24011;DHT22;12217;50.792;4.372;2023-05-10T05:30:43;13.40;99.90
24011;DHT22;12217;50.792;4.372;2023-05-10T05:33:09;13.30;99.90
24011;DHT22;12217;50.792;4.372;2023-05-10T05:35:34;13.40;99.90
24011;DHT22;12217;50.792;4.372;2023-05-10T05:38:00;13.50;99.90
24011;DHT22;12217;50.792;4.372;2023-05-10T05:40:26;13.50;99.90
24011;DHT22;12217;50.792;4.372;2023-05-10T05:42:51;13.50;99.90
24011;DHT22;12217;50.792;4.372;2023-05-10T05:45:17;13.50;99.90
24011;DHT22;12217;50.792;4.372;2023-05-10T05:47:43;13.60;99.90
24011;DHT22;12217;50.792;4.372;2023-05-10T05:50:09;13.80;99.90
24011;DHT22;12217;50.792;4.372;2023-05-10T05:52:35;13.90;99.90
24011;DHT22;12217;50.792;4.372;2023-05-10T05:55:01;13.80;99.90
24011;DHT22;12217;50.792;4.372;2023-05-10T05:57:27;13.70;99.90
24011;DHT22;12217;50.792;4.372;2023-05-10T05:59:52;13.50;99.90
24011;DHT22;12217;50.792;4.372;2023-05-10T06:02:18;13.30;99.90
24011;DHT22;12217;50.792;4.372;2023-05-10T06:04:43;13.10;99.90
24011;DHT22;12217;50.792;4.372;2023-05-10T06:07:09;13.00;99.90
24011;DHT22;12217;50.792;4.372;2023-05-10T06:09:35;12.90;99.90
24011;DHT22;12217;50.792;4.372;2023-05-10T06:12:00;12.90;99.90
24011;DHT22;12217;50.792;4.372;2023-05-10T06:14:26;13.00;99.90
24011;DHT22;12217;50.792;4.372;2023-05-10T06:16:52;12.80;99.90
24011;DHT22;12217;50.792;4.372;2023-05-10T06:19:18;12.60;99.90
24011;DHT22;12217;50.792;4.372;2023-05-10T06:21:44;12.80;99.90
24011;DHT22;12217;50.792;4.372;2023-05-10T06:24:09;13.00;99.90
24011;DHT22;12217;50.792;4.372;2023-05-10T06:26:35;13.20;99.90
24011;DHT22;12217;50.792;4.372;2023-05-10T06:29:01;13.20;99.90
24011;DHT22;12217;50.792;4.372;2023-05-10T06:31:26;13.30;99.90
24011;DHT22;12217;50.792;4.372;2023-05-10T06:33:52;13.00;99.90
24011;DHT22;12217;50.792;4.372;2023-05-10T06:36:18;13.10;99.90
24011;DHT22;12217;50.792;4.372;2023-05-10T06:38:43;13.00;99.90
24011;DHT22;12217;50.792;4.372;2023-05-10T06:41:09;12.90;99.90
24011;DHT22;12217;50.792;4.372;2023-05-10T06:43:35;12.90;99.90
24011;DHT22;12217;50.792;4.372;2023-05-10T06:46:00;12.80;99.90
24011;DHT22;12217;50.792;4.372;2023-05-10T06:48:26;12.70;99.90
24011;DHT22;12217;50.792;4.372;2023-05-10T06:50:52;12.80;99.90
24011;DHT22;12217;50.792;4.372;2023-05-10T06:53:17;13.00;99.90
24011;DHT22;12217;50.792;4.372;2023-05-10T06:55:43;12.80;99.90
24011;DHT22;12217;50.792;4.372;2023-05-10T06:58:08;12.90;99.90
24011;DHT22;12217;50.792;4.372;2023-05-10T07:00:34;13.00;99.90
24011;DHT22;12217;50.792;4.372;2023-05-10T07:03:01;13.20;99.90
24011;DHT22;12217;50.792;4.372;2023-05-10T07:05:26;13.20;99.90
24011;DHT22;12217;50.792;4.372;2023-05-10T07:07:53;12.90;99.90
24011;DHT22;12217;50.792;4.372;2023-05-10T07:10:18;12.90;99.90
24011;DHT22;12217;50.792;4.372;2023-05-10T07:12:44;12.90;99.90
24011;DHT22;12217;50.792;4.372;2023-05-10T07:15:10;12.80;99.90
24011;DHT22;12217;50.792;4.372;2023-05-10T07:17:35;12.70;99.90
24011;DHT22;12217;50.792;4.372;2023-05-10T07:20:01;12.70;99.90
24011;DHT22;12217;50.792;4.372;2023-05-10T07:22:27;12.80;99.90
24011;DHT22;12217;50.792;4.372;2023-05-10T07:24:53;12.90;99.90
24011;DHT22;12217;50.792;4.372;2023-05-10T07:27:18;12.80;99.90
24011;DHT22;12217;50.792;4.372;2023-05-10T07:29:44;12.60;99.90
24011;DHT22;12217;50.792;4.372;2023-05-10T07:32:10;12.40;99.90
24011;DHT22;12217;50.792;4.372;2023-05-10T07:34:35;12.60;99.90
24011;DHT22;12217;50.792;4.372;2023-05-10T07:37:01;12.70;99.90
24011;DHT22;12217;50.792;4.372;2023-05-10T07:39:27;13.10;99.90
24011;DHT22;12217;50.792;4.372;2023-05-10T07:41:56;13.10;99.90
24011;DHT22;12217;50.792;4.372;2023-05-10T07:44:22;13.30;99.90
24011;DHT22;12217;50.792;4.372;2023-05-10T07:46:48;13.20;99.90
24011;DHT22;12217;50.792;4.372;2023-05-10T07:49:14;13.40;99.90
24011;DHT22;12217;50.792;4.372;2023-05-10T07:51:40;13.40;99.90
24011;DHT22;12217;50.792;4.372;2023-05-10T07:54:06;13.60;99.90
24011;DHT22;12217;50.792;4.372;2023-05-10T07:56:32;13.70;99.90
24011;DHT22;12217;50.792;4.372;2023-05-10T07:58:59;13.80;99.90
24011;DHT22;12217;50.792;4.372;2023-05-10T08:01:25;13.90;99.90
24011;DHT22;12217;50.792;4.372;2023-05-10T08:03:51;14.10;99.90
24011;DHT22;12217;50.792;4.372;2023-05-10T08:06:19;13.80;99.90
24011;DHT22;12217;50.792;4.372;2023-05-10T08:08:46;13.60;99.90
24011;DHT22;12217;50.792;4.372;2023-05-10T08:11:15;13.50;99.90
24011;DHT22;12217;50.792;4.372;2023-05-10T08:13:41;13.40;99.90
24011;DHT22;12217;50.792;4.372;2023-05-10T08:16:07;13.50;99.90
24011;DHT22;12217;50.792;4.372;2023-05-10T08:18:32;13.70;99.90
24011;DHT22;12217;50.792;4.372;2023-05-10T08:20:58;13.50;99.90
24011;DHT22;12217;50.792;4.372;2023-05-10T08:23:23;13.40;99.90
24011;DHT22;12217;50.792;4.372;2023-05-10T08:25:49;13.30;99.90
24011;DHT22;12217;50.792;4.372;2023-05-10T08:28:15;13.50;99.90
24011;DHT22;12217;50.792;4.372;2023-05-10T08:30:40;13.60;99.90
24011;DHT22;12217;50.792;4.372;2023-05-10T08:33:06;13.60;99.90
24011;DHT22;12217;50.792;4.372;2023-05-10T08:35:32;13.90;99.90
24011;DHT22;12217;50.792;4.372;2023-05-10T08:37:58;13.90;99.90
24011;DHT22;12217;50.792;4.372;2023-05-10T08:40:24;13.80;99.90
24011;DHT22;12217;50.792;4.372;2023-05-10T08:43:05;13.80;99.90
24011;DHT22;12217;50.792;4.372;2023-05-10T08:45:33;13.80;99.90
24011;DHT22;12217;50.792;4.372;2023-05-10T08:48:02;13.60;99.90
24011;DHT22;12217;50.792;4.372;2023-05-10T08:50:30;13.50;99.90
24011;DHT22;12217;50.792;4.372;2023-05-10T08:53:00;13.30;99.90
24011;DHT22;12217;50.792;4.372;2023-05-10T08:55:26;13.10;99.90
24011;DHT22;12217;50.792;4.372;2023-05-10T08:57:52;13.10;99.90
24011;DHT22;12217;50.792;4.372;2023-05-10T09:00:18;13.00;99.90
24011;DHT22;12217;50.792;4.372;2023-05-10T09:02:45;13.20;99.90
24011;DHT22;12217;50.792;4.372;2023-05-10T09:05:13;13.30;99.90
24011;DHT22;12217;50.792;4.372;2023-05-10T09:07:41;13.50;99.90
24011;DHT22;12217;50.792;4.372;2023-05-10T09:10:08;13.60;99.90
24011;DHT22;12217;50.792;4.372;2023-05-10T09:12:35;13.60;99.90
24011;DHT22;12217;50.792;4.372;2023-05-10T09:15:01;13.60;99.90
24011;DHT22;12217;50.792;4.372;2023-05-10T09:17:29;13.60;99.90
24011;DHT22;12217;50.792;4.372;2023-05-10T09:20:02;13.60;99.90
24011;DHT22;12217;50.792;4.372;2023-05-10T09:22:30;13.90;99.90
24011;DHT22;12217;50.792;4.372;2023-05-10T09:25:14;14.10;99.90
24011;DHT22;12217;50.792;4.372;2023-05-10T09:27:43;14.00;99.90
24011;DHT22;12217;50.792;4.372;2023-05-10T09:30:10;14.00;99.90
24011;DHT22;12217;50.792;4.372;2023-05-10T09:32:40;13.80;99.90
24011;DHT22;12217;50.792;4.372;2023-05-10T09:35:19;13.80;99.90
24011;DHT22;12217;50.792;4.372;2023-05-10T09:37:46;13.40;99.90
24011;DHT22;12217;50.792;4.372;2023-05-10T09:40:14;13.10;99.90
24011;DHT22;12217;50.792;4.372;2023-05-10T09:42:42;13.30;99.90
24011;DHT22;12217;50.792;4.372;2023-05-10T09:45:08;13.40;99.90
24011;DHT22;12217;50.792;4.372;2023-05-10T09:47:34;13.60;99.90
24011;DHT22;12217;50.792;4.372;2023-05-10T09:50:01;13.60;99.90
24011;DHT22;12217;50.792;4.372;2023-05-10T09:52:31;13.70;99.90
24011;DHT22;12217;50.792;4.372;2023-05-10T09:55:10;13.80;99.90
24011;DHT22;12217;50.792;4.372;2023-05-10T09:57:36;13.90;99.90
24011;DHT22;12217;50.792;4.372;2023-05-10T10:00:02;14.00;99.90
24011;DHT22;12217;50.792;4.372;2023-05-10T10:02:31;13.80;99.90
24011;DHT22;12217;50.792;4.372;2023-05-10T10:04:56;13.70;99.90
24011;DHT22;12217;50.792;4.372;2023-05-10T10:07:23;13.60;99.90
24011;DHT22;12217;50.792;4.372;2023-05-10T10:09:53;13.40;99.90
24011;DHT22;12217;50.792;4.372;2023-05-10T10:12:20;13.40;99.90
24011;DHT22;12217;50.792;4.372;2023-05-10T10:14:48;13.40;99.90
24011;DHT22;12217;50.792;4.372;2023-05-10T10:17:16;13.50;99.90
24011;DHT22;12217;50.792;4.372;2023-05-10T10:19:42;13.30;99.90
24011;DHT22;12217;50.792;4.372;2023-05-10T10:22:08;13.10;99.90
24011;DHT22;12217;50.792;4.372;2023-05-10T10:24:36;13.20;99.90
24011;DHT22;12217;50.792;4.372;2023-05-10T10:27:19;13.40;99.90
24011;DHT22;12217;50.792;4.372;2023-05-10T10:30:07;13.50;99.90
24011;DHT22;12217;50.792;4.372;2023-05-10T10:32:42;13.70;99.90
24011;DHT22;12217;50.792;4.372;2023-05-10T10:35:15;13.80;99.90
24011;DHT22;12217;50.792;4.372;2023-05-10T10:37:46;13.70;99.90
24011;DHT22;12217;50.792;4.372;2023-05-10T10:40:29;14.00;99.90
24011;DHT22;12217;50.792;4.372;2023-05-10T10:42:56;14.10;99.90
24011;DHT22;12217;50.792;4.372;2023-05-10T10:45:22;14.20;99.90
24011;DHT22;12217;50.792;4.372;2023-05-10T10:47:48;14.40;99.90
24011;DHT22;12217;50.792;4.372;2023-05-10T10:50:18;14.30;99.90
24011;DHT22;12217;50.792;4.372;2023-05-10T10:52:44;14.20;99.90
24011;DHT22;12217;50.792;4.372;2023-05-10T10:55:12;14.40;99.90
24011;DHT22;12217;50.792;4.372;2023-05-10T11:00:27;14.60;99.90
24011;DHT22;12217;50.792;4.372;2023-05-10T11:03:10;14.70;99.90
24011;DHT22;12217;50.792;4.372;2023-05-10T11:05:48;14.70;99.90
24011;DHT22;12217;50.792;4.372;2023-05-10T11:10:48;14.60;99.90
24011;DHT22;12217;50.792;4.372;2023-05-10T11:13:14;14.50;99.90
24011;DHT22;12217;50.792;4.372;2023-05-10T11:15:40;14.80;99.90
24011;DHT22;12217;50.792;4.372;2023-05-10T11:18:31;14.90;99.90
24011;DHT22;12217;50.792;4.372;2023-05-10T11:20:59;15.20;99.90
24011;DHT22;12217;50.792;4.372;2023-05-10T11:26:14;15.30;99.90
24011;DHT22;12217;50.792;4.372;2023-05-10T11:28:49;15.30;99.90
24011;DHT22;12217;50.792;4.372;2023-05-10T11:31:16;15.40;99.90
24011;DHT22;12217;50.792;4.372;2023-05-10T11:33:53;15.20;99.90
24011;DHT22;12217;50.792;4.372;2023-05-10T11:36:21;15.20;99.90
24011;DHT22;12217;50.792;4.372;2023-05-10T11:38:47;15.30;99.90
24011;DHT22;12217;50.792;4.372;2023-05-10T11:41:14;15.40;99.90
24011;DHT22;12217;50.792;4.372;2023-05-10T11:43:40;15.80;99.90
24011;DHT22;12217;50.792;4.372;2023-05-10T11:46:07;16.10;99.90
24011;DHT22;12217;50.792;4.372;2023-05-10T11:48:33;15.70;99.90
24011;DHT22;12217;50.792;4.372;2023-05-10T11:51:01;15.40;99.90
24011;DHT22;12217;50.792;4.372;2023-05-10T11:53:29;15.60;99.90
24011;DHT22;12217;50.792;4.372;2023-05-10T11:55:55;16.10;99.90
24011;DHT22;12217;50.792;4.372;2023-05-10T11:58:21;16.40;99.90
24011;DHT22;12217;50.792;4.372;2023-05-10T12:00:48;16.40;99.90
24011;DHT22;12217;50.792;4.372;2023-05-10T12:03:14;16.80;99.90
24011;DHT22;12217;50.792;4.372;2023-05-10T12:05:41;16.80;99.90
24011;DHT22;12217;50.792;4.372;2023-05-10T12:08:14;16.70;99.90
24011;DHT22;12217;50.792;4.372;2023-05-10T12:10:40;16.60;99.90
24011;DHT22;12217;50.792;4.372;2023-05-10T12:13:11;16.60;99.90
24011;DHT22;12217;50.792;4.372;2023-05-10T12:15:38;16.60;99.90
24011;DHT22;12217;50.792;4.372;2023-05-10T12:18:04;16.50;99.90
24011;DHT22;12217;50.792;4.372;2023-05-10T12:20:30;16.60;99.90
24011;DHT22;12217;50.792;4.372;2023-05-10T12:22:57;16.50;99.90
24011;DHT22;12217;50.792;4.372;2023-05-10T12:25:32;16.20;99.90
24011;DHT22;12217;50.792;4.372;2023-05-10T12:27:59;16.20;99.90
24011;DHT22;12217;50.792;4.372;2023-05-10T12:30:30;16.40;99.90
24011;DHT22;12217;50.792;4.372;2023-05-10T12:33:10;16.10;99.90
24011;DHT22;12217;50.792;4.372;2023-05-10T12:35:47;16.20;99.90
24011;DHT22;12217;50.792;4.372;2023-05-10T12:40:50;16.30;99.90
24011;DHT22;12217;50.792;4.372;2023-05-10T12:43:16;16.30;99.90
24011;DHT22;12217;50.792;4.372;2023-05-10T12:45:42;16.20;99.90
24011;DHT22;12217;50.792;4.372;2023-05-10T12:48:07;16.00;99.90
24011;DHT22;12217;50.792;4.372;2023-05-10T12:50:33;16.00;99.90
24011;DHT22;12217;50.792;4.372;2023-05-10T12:52:58;16.00;99.90
24011;DHT22;12217;50.792;4.372;2023-05-10T12:55:24;16.10;99.90
24011;DHT22;12217;50.792;4.372;2023-05-10T12:57:50;16.20;99.90
24011;DHT22;12217;50.792;4.372;2023-05-10T13:00:16;16.70;99.90
24011;DHT22;12217;50.792;4.372;2023-05-10T13:02:42;16.80;99.90
24011;DHT22;12217;50.792;4.372;2023-05-10T13:05:07;16.90;99.90
24011;DHT22;12217;50.792;4.372;2023-05-10T13:07:33;17.00;99.90
24011;DHT22;12217;50.792;4.372;2023-05-10T13:09:58;17.20;99.90
24011;DHT22;12217;50.792;4.372;2023-05-10T13:12:24;17.30;99.90
24011;DHT22;12217;50.792;4.372;2023-05-10T13:14:50;17.30;99.90
24011;DHT22;12217;50.792;4.372;2023-05-10T13:17:15;17.40;99.90
24011;DHT22;12217;50.792;4.372;2023-05-10T13:19:41;17.50;99.90
24011;DHT22;12217;50.792;4.372;2023-05-10T13:22:07;17.80;99.90
24011;DHT22;12217;50.792;4.372;2023-05-10T13:24:32;18.20;99.90
24011;DHT22;12217;50.792;4.372;2023-05-10T13:26:58;18.00;99.90
24011;DHT22;12217;50.792;4.372;2023-05-10T13:29:23;17.90;99.90
24011;DHT22;12217;50.792;4.372;2023-05-10T13:31:49;17.60;99.90
24011;DHT22;12217;50.792;4.372;2023-05-10T13:34:15;17.70;99.90
24011;DHT22;12217;50.792;4.372;2023-05-10T13:36:41;17.90;99.90
24011;DHT22;12217;50.792;4.372;2023-05-10T13:39:07;18.10;99.90
24011;DHT22;12217;50.792;4.372;2023-05-10T13:41:33;18.00;99.90
24011;DHT22;12217;50.792;4.372;2023-05-10T13:43:59;17.80;99.90
24011;DHT22;12217;50.792;4.372;2023-05-10T13:46:25;17.40;99.90
24011;DHT22;12217;50.792;4.372;2023-05-10T13:48:50;17.60;99.90
24011;DHT22;12217;50.792;4.372;2023-05-10T13:51:16;17.90;99.90
24011;DHT22;12217;50.792;4.372;2023-05-10T13:53:41;17.90;99.90
24011;DHT22;12217;50.792;4.372;2023-05-10T13:56:07;18.30;99.90
24011;DHT22;12217;50.792;4.372;2023-05-10T13:58:33;18.50;99.90
24011;DHT22;12217;50.792;4.372;2023-05-10T14:00:58;18.00;99.90
24011;DHT22;12217;50.792;4.372;2023-05-10T14:03:24;18.00;99.90
24011;DHT22;12217;50.792;4.372;2023-05-10T14:05:49;17.90;99.90
24011;DHT22;12217;50.792;4.372;2023-05-10T14:08:15;17.90;99.90
24011;DHT22;12217;50.792;4.372;2023-05-10T14:10:41;18.20;99.90
24011;DHT22;12217;50.792;4.372;2023-05-10T14:13:06;18.40;99.90
24011;DHT22;12217;50.792;4.372;2023-05-10T14:15:33;18.20;99.90
24011;DHT22;12217;50.792;4.372;2023-05-10T14:17:58;18.10;99.90
24011;DHT22;12217;50.792;4.372;2023-05-10T14:20:24;18.10;99.90
24011;DHT22;12217;50.792;4.372;2023-05-10T14:22:50;17.90;99.90
24011;DHT22;12217;50.792;4.372;2023-05-10T14:25:15;17.50;99.90
24011;DHT22;12217;50.792;4.372;2023-05-10T14:27:41;17.30;99.90
24011;DHT22;12217;50.792;4.372;2023-05-10T14:30:07;17.30;99.90
24011;DHT22;12217;50.792;4.372;2023-05-10T14:32:33;17.40;99.90
24011;DHT22;12217;50.792;4.372;2023-05-10T14:34:59;17.10;99.90
24011;DHT22;12217;50.792;4.372;2023-05-10T14:37:25;17.20;99.90
24011;DHT22;12217;50.792;4.372;2023-05-10T14:39:51;17.30;99.90
24011;DHT22;12217;50.792;4.372;2023-05-10T14:42:17;17.50;99.90
24011;DHT22;12217;50.792;4.372;2023-05-10T14:44:43;17.50;99.90
24011;DHT22;12217;50.792;4.372;2023-05-10T14:47:09;17.60;99.90
24011;DHT22;12217;50.792;4.372;2023-05-10T14:49:34;17.50;99.90
24011;DHT22;12217;50.792;4.372;2023-05-10T14:52:00;17.40;99.90
24011;DHT22;12217;50.792;4.372;2023-05-10T14:54:26;17.50;99.90
24011;DHT22;12217;50.792;4.372;2023-05-10T14:56:52;17.30;99.90
24011;DHT22;12217;50.792;4.372;2023-05-10T14:59:18;17.10;99.90
24011;DHT22;12217;50.792;4.372;2023-05-10T15:01:43;17.00;99.90
24011;DHT22;12217;50.792;4.372;2023-05-10T15:04:09;17.10;99.90
24011;DHT22;12217;50.792;4.372;2023-05-10T15:06:35;16.80;99.90
24011;DHT22;12217;50.792;4.372;2023-05-10T15:09:01;16.90;99.90
24011;DHT22;12217;50.792;4.372;2023-05-10T15:11:28;16.90;99.90
24011;DHT22;12217;50.792;4.372;2023-05-10T15:13:54;16.70;99.90
24011;DHT22;12217;50.792;4.372;2023-05-10T15:16:20;16.60;99.90
24011;DHT22;12217;50.792;4.372;2023-05-10T15:18:46;16.60;99.90
24011;DHT22;12217;50.792;4.372;2023-05-10T15:21:11;16.60;99.90
24011;DHT22;12217;50.792;4.372;2023-05-10T15:23:37;16.60;99.90
24011;DHT22;12217;50.792;4.372;2023-05-10T15:26:03;16.40;99.90
24011;DHT22;12217;50.792;4.372;2023-05-10T15:28:29;16.40;99.90
24011;DHT22;12217;50.792;4.372;2023-05-10T15:30:55;16.50;99.90
24011;DHT22;12217;50.792;4.372;2023-05-10T15:33:21;16.30;99.90
24011;DHT22;12217;50.792;4.372;2023-05-10T15:35:47;16.40;99.90
24011;DHT22;12217;50.792;4.372;2023-05-10T15:38:13;16.50;99.90
24011;DHT22;12217;50.792;4.372;2023-05-10T15:40:38;16.40;99.90
24011;DHT22;12217;50.792;4.372;2023-05-10T15:43:04;16.50;99.90
24011;DHT22;12217;50.792;4.372;2023-05-10T15:45:30;16.60;99.90
24011;DHT22;12217;50.792;4.372;2023-05-10T15:47:57;16.50;99.90
24011;DHT22;12217;50.792;4.372;2023-05-10T15:50:22;16.60;99.90
24011;DHT22;12217;50.792;4.372;2023-05-10T15:52:48;16.80;99.90
24011;DHT22;12217;50.792;4.372;2023-05-10T15:55:14;16.90;99.90
24011;DHT22;12217;50.792;4.372;2023-05-10T15:57:40;16.50;99.90